Terminal Aerodrome Forecast
Issued by NWS North Platte, NE

Home | Current Version | Previous Version | Graphics & Text | Print | Product List | Glossary On
Versions: 1 2 3 4 5 6 7 8 9 10 11 12 13 14 15 16
557
FTUS43 KLBF 200530
TAFVTN
TAF
KVTN 200530Z 2006/2106 03006KT P6SM BKN150
     FM201300 07008KT P6SM BKN150
     FM201700 08011G17KT P6SM OVC250
     FM210100 09013KT P6SM OVC250=

USA.gov is the U.S. government's official web portal to all federal, state and local government web resources and services.